CDT,Max TemperatureF,Mean TemperatureF,Min TemperatureF,Max Dew PointF,MeanDew PointF,Min DewpointF,Max Humidity, Mean Humidity, Min Humidity, Max Sea Level PressureIn, Mean Sea Level PressureIn, Min Sea Level PressureIn, Max VisibilityMiles, Mean VisibilityMiles, Min VisibilityMiles, Max Wind SpeedMPH, Mean Wind SpeedMPH, Max Gust SpeedMPH,PrecipitationIn, CloudCover, Events, WindDirDegrees
2012-10-1,71,60,48,48,38,32,72,45,23,29.95,29.91,29.87,10,10,8,24,10,31,0.00,0,,340
2012-10-2,73,56,39,43,36,30,70,48,27,29.98,29.92,29.86,10,10,4,9,6,,0.00,0,,345
2012-10-3,77,59,41,41,36,28,81,45,17,29.92,29.88,29.81,10,10,3,21,10,30,0.00,0,,169
2012-10-4,62,52,41,41,34,27,76,57,34,30.25,30.10,29.85,10,10,8,25,18,36,0.00,4,,298
2012-10-5,51,40,28,28,21,14,86,53,24,30.25,30.21,30.15,10,10,9,21,11,34,0.00,0,,300
2012-10-6,41,32,24,27,23,19,86,63,45,30.29,30.25,30.21,10,10,9,18,9,23,0.00,6,,322
2012-10-7,53,36,19,23,20,16,93,54,26,30.25,30.12,29.94,10,10,10,21,9,29,0.00,0,,230
2012-10-8,68,52,35,50,31,23,94,51,21,29.94,29.80,29.69,10,10,4,31,16,44,0.12,3,Rain,209
2012-10-9,51,42,32,50,39,27,100,77,47,30.06,29.89,29.77,10,9,4,21,10,32,0.10,5,Rain,292
2012-10-10,55,42,30,32,28,23,87,61,29,30.17,30.07,29.94,10,10,10,17,11,23,0.00,1,,248
2012-10-11,48,42,35,36,29,19,66,54,39,30.38,30.11,29.92,10,10,10,22,14,25,0.00,1,,330
2012-10-12,55,39,23,36,21,14,80,50,20,30.40,30.28,30.02,10,10,10,22,9,30,0.00,2,,129
2012-10-13,71,60,48,64,55,39,100,85,68,30.00,29.76,29.64,10,8,2,22,13,28,0.11,8,Rain,184
2012-10-14,59,50,39,55,43,32,100,75,45,29.92,29.77,29.64,10,7,1,25,15,38,0.01,4,Rain,340
2012-10-15,66,50,33,43,38,30,93,64,37,29.98,29.90,29.77,10,10,2,17,8,23,0.00,0,,215
2012-10-16,69,60,50,48,46,43,82,64,43,29.75,29.52,29.39,10,10,2,17,12,21,0.00,0,,183
2012-10-17,60,53,46,54,43,34,94,66,42,29.44,29.35,29.24,10,10,4,29,16,41,0.00,5,Rain,255
2012-10-18,48,44,41,46,41,36,100,88,66,29.39,29.31,29.24,10,6,1,29,21,39,0.13,8,Rain,298
2012-10-19,46,44,42,43,42,41,100,93,87,29.76,29.62,29.42,10,9,2,21,14,30,0.00,8,,330
2012-10-20,53,48,42,45,43,41,100,90,72,29.83,29.79,29.76,10,8,1,15,6,17,0.00,5,,175
2012-10-21,75,58,42,57,49,41,93,77,50,29.87,29.79,29.75,10,10,8,22,15,26,0.00,1,,151
2012-10-22,71,60,50,63,53,46,94,81,64,29.87,29.83,29.77,10,9,6,17,10,20,0.00,7,,43
2012-10-23,68,62,57,64,60,55,100,90,78,29.78,29.74,29.69,9,5,1,22,12,24,0.00,8,,193
2012-10-24,59,54,46,57,54,46,100,97,88,29.82,29.77,29.72,6,3,0,21,11,29,0.24,8,Rain,14
2012-10-25,46,40,35,45,34,27,100,85,65,30.25,29.93,29.60,10,7,1,30,20,44,0.60,8,Rain-Snow,336
2012-10-26,37,34,32,30,26,23,81,67,56,30.42,30.36,30.25,10,10,10,18,11,24,0.00,7,,309
2012-10-27,41,34,28,30,25,21,87,67,49,30.39,30.33,30.27,10,10,3,9,4,,0.00,3,,226
2012-10-28,46,39,32,28,26,23,80,64,43,30.33,30.29,30.23,10,10,10,15,7,18,0.00,6,,153
2012-10-29,50,42,33,30,26,21,70,59,40,30.27,30.23,30.18,10,10,10,21,12,31,0.00,4,,147
2012-10-30,48,37,26,30,27,23,86,65,43,30.18,30.11,30.04,10,10,9,13,7,14,0.00,2,,37
2012-10-31,53,40,28,32,25,19,93,59,28,30.05,30.01,29.95,10,9,4,8,6,,0.00,2,,328